Time;durP1;ratioP1;P1;durP2;ratioP2;P2;SDS_P1;SDS_P2;PMS_P1;PMS_P2;Temp;Humidity;BMP_temperature;BMP_pressure;BME280_temperature;BME280_humidity;BME280_pressure;Samples;Min_cycle;Max_cycle;Signal;HPM_P1;HPM_P2
2022/04/10 00:01:10;;;;;;;14.27;2.88;;;;;;;;;;5083373;28;20051;-85
2022/04/10 00:03:56;;;;;;;12.53;2.43;;;;;;;;;;5082849;28;20475;-86
2022/04/10 00:06:41;;;;;;;12.50;2.93;;;;;;;;;;5096179;28;20039;-86
2022/04/10 00:09:25;;;;;;;9.50;2.78;;;;;;;;;;5082189;28;20093;-85
2022/04/10 00:12:10;;;;;;;20.60;2.90;;;;;;;;;;5112220;28;20066;-85
2022/04/10 00:14:54;;;;;;;13.30;3.60;;;;;;;;;;5096911;28;20074;-85
2022/04/10 00:17:39;;;;;;;14.73;2.90;;;2.60;99.90;;;;;;5098451;28;20116;-85
2022/04/10 00:20:24;;;;;;;16.07;2.40;;;;;;;;;;5086134;28;20050;-87
2022/04/10 00:23:09;;;;;;;19.98;3.50;;;;;;;;;;5086457;28;20437;-85
2022/04/10 00:25:54;;;;;;;18.50;3.23;;;;;;;;;;5100639;28;20039;-86
2022/04/10 00:28:39;;;;;;;14.27;3.37;;;;;;;;;;5100196;28;20566;-85
2022/04/10 00:31:24;;;;;;;10.27;2.40;;;;;;;;;;5116102;28;20035;-86
2022/04/10 00:34:08;;;;;;;14.40;3.17;;;;;;;;;;5086222;28;20039;-85
2022/04/10 00:36:53;;;;;;;16.97;2.90;;;;;;;;;;5100638;28;20070;-85
2022/04/10 00:39:37;;;;;;;9.93;2.80;;;;;;;;;;5100716;28;20066;-86
2022/04/10 00:42:22;;;;;;;17.40;2.70;;;;;;;;;;5100958;28;20054;-85
2022/04/10 00:45:08;;;;;;;15.40;3.73;;;2.50;99.90;;;;;;5100586;28;20105;-85
2022/04/10 00:47:53;;;;;;;17.47;3.77;;;;;;;;;;5099478;28;20035;-85
2022/04/10 00:51:39;;;;;;;14.37;2.80;;;;;;;;;;5100197;28;20047;-85
2022/04/10 00:53:42;;;;;;;16.20;4.30;;;;;;;;;;5113923;28;20053;-85
2022/04/10 00:56:27;;;;;;;15.37;3.07;;;;;;;;;;5114947;28;20047;-85
2022/04/10 00:59:13;;;;;;;17.17;3.20;;;2.50;99.90;;;;;;5099960;28;20442;-85
2022/04/10 01:01:57;;;;;;;13.73;3.70;;;;;;;;;;5115417;28;20136;-85
2022/04/10 01:04:43;;;;;;;17.27;2.23;;;;;;;;;;5100016;28;20165;-85
2022/04/10 01:07:28;;;;;;;15.13;2.80;;;2.40;99.90;;;;;;5115282;28;20034;-86
2022/04/10 01:10:13;;;;;;;19.17;2.55;;;;;;;;;;5100410;28;20042;-85
2022/04/10 01:12:58;;;;;;;13.63;2.83;;;;;;;;;;5099908;28;20089;-86
2022/04/10 01:15:42;;;;;;;13.47;2.97;;;;;;;;;;5114919;28;20491;-85
2022/04/10 01:18:27;;;;;;;12.80;2.50;;;;;;;;;;5086033;28;20090;-85
2022/04/10 01:21:14;;;;;;;13.57;2.77;;;2.30;99.90;;;;;;5098907;28;20428;-86
2022/04/10 01:23:59;;;;;;;9.40;2.70;;;;;;;;;;5098757;28;20039;-86
2022/04/10 01:26:44;;;;;;;9.90;2.37;;;;;;;;;;5098615;28;20111;-86
2022/04/10 01:29:29;;;;;;;12.53;2.90;;;;;;;;;;5099117;28;20043;-86
2022/04/10 01:32:14;;;;;;;17.70;3.03;;;;;;;;;;5099796;28;20042;-85
2022/04/10 01:35:01;;;;;;;13.57;2.73;;;2.20;99.90;;;;;;5115104;28;20090;-85
2022/04/10 01:37:46;;;;;;;19.83;3.23;;;;;;;;;;5098708;28;20142;-86
2022/04/10 01:40:30;;;;;;;12.80;3.00;;;;;;;;;;5098986;28;20042;-85
2022/04/10 01:43:15;;;;;;;12.93;3.47;;;;;;;;;;5099122;28;20047;-85
2022/04/10 01:45:59;;;;;;;14.83;3.07;;;;;;;;;;5098551;28;20043;-86
2022/04/10 01:48:44;;;;;;;18.33;3.50;;;;;;;;;;5099261;28;20034;-85
2022/04/10 01:51:29;;;;;;;10.97;2.27;;;;;;;;;;5099426;28;20506;-85
2022/04/10 01:54:13;;;;;;;13.30;2.80;;;;;;;;;;5085359;28;20077;-85
2022/04/10 01:56:58;;;;;;;18.37;3.90;;;;;;;;;;5114499;28;20352;-85
2022/04/10 01:59:43;;;;;;;13.33;2.43;;;;;;;;;;5098844;28;20042;-85
2022/04/10 02:02:28;;;;;;;16.50;2.93;;;;;;;;;;5114391;28;20521;-86
2022/04/10 02:05:12;;;;;;;17.80;2.40;;;;;;;;;;5098980;28;20042;-85
2022/04/10 02:07:57;;;;;;;14.30;2.40;;;;;;;;;;5084051;28;20633;-85
2022/04/10 02:10:41;;;;;;;20.67;4.20;;;;;;;;;;5084494;28;20395;-85
2022/04/10 02:13:26;;;;;;;13.43;4.00;;;;;;;;;;5099030;28;20078;-86
2022/04/10 02:16:15;;;;;;;15.00;2.40;;;2.00;99.90;;;;;;5098956;28;20038;-85
2022/04/10 02:19:00;;;;;;;14.57;2.30;;;;;;;;;;5098278;28;20034;-85
2022/04/10 02:21:44;;;;;;;9.10;2.43;;;;;;;;;;5083376;28;20095;-85
2022/04/10 02:24:29;;;;;;;19.17;4.90;;;;;;;;;;5097641;28;20077;-86
2022/04/10 02:27:19;;;;;;;18.17;3.17;;;2.00;99.90;;;;;;5098449;28;20070;-86
2022/04/10 02:30:04;;;;;;;13.77;2.60;;;;;;;;;;5098282;28;20058;-86
2022/04/10 02:32:49;;;;;;;20.00;4.50;;;;;;;;;;5098138;28;20119;-86
2022/04/10 02:35:34;;;;;;;13.53;2.60;;;;;;;;;;5098553;28;20180;-86
2022/04/10 02:38:19;;;;;;;17.20;2.90;;;;;;;;;;5114398;28;20054;-86
2022/04/10 02:41:03;;;;;;;12.43;2.53;;;;;;;;;;5083377;28;20240;-85
2022/04/10 02:43:48;;;;;;;11.43;3.33;;;;;;;;;;5084021;28;20080;-86
2022/04/10 02:46:32;;;;;;;16.57;2.10;;;;;;;;;;5113367;28;20387;-85
2022/04/10 02:49:17;;;;;;;13.23;2.57;;;;;;;;;;5082847;28;20399;-86
2022/04/10 02:52:01;;;;;;;12.10;2.30;;;;;;;;;;5097427;28;20050;-86
2022/04/10 02:54:46;;;;;;;16.97;3.27;;;;;;;;;;5112229;28;20564;-87
2022/04/10 02:57:31;;;;;;;13.63;2.80;;;;;;;;;;5084310;28;20046;-86
2022/04/10 03:00:15;;;;;;;9.10;2.23;;;2.70;99.90;;;;;;5083526;28;20042;-85
2022/04/10 03:03:00;;;;;;;12.50;2.17;;;;;;;;;;5082400;28;20074;-86
2022/04/10 03:05:44;;;;;;;9.70;2.30;;;;;;;;;;5098293;28;20100;-86
2022/04/10 03:08:29;;;;;;;12.43;2.97;;;;;;;;;;5098160;28;20494;-86
2022/04/10 03:11:13;;;;;;;10.07;2.30;;;;;;;;;;5098261;28;20084;-86
2022/04/10 03:13:58;;;;;;;14.30;2.37;;;;;;;;;;5083243;28;20042;-85
2022/04/10 03:16:43;;;;;;;19.50;3.57;;;;;;;;;;5113472;28;20113;-87
2022/04/10 03:19:28;;;;;;;10.83;2.40;;;;;;;;;;5113208;28;20034;-86
2022/04/10 03:22:13;;;;;;;10.17;2.67;;;;;;;;;;5082698;28;20445;-86
2022/04/10 03:24:57;;;;;;;9.73;1.90;;;;;;;;;;5097387;28;20392;-86
2022/04/10 03:27:42;;;;;;;12.37;2.20;;;;;;;;;;5097553;28;20038;-86
2022/04/10 03:30:26;;;;;;;6.13;1.57;;;;;;;;;;5112169;28;20042;-86
2022/04/10 03:33:11;;;;;;;12.33;3.47;;;;;;;;;;5096823;28;20631;-86
2022/04/10 03:35:56;;;;;;;6.30;1.50;;;;;;;;;;5082747;28;20039;-86
2022/04/10 03:38:40;;;;;;;13.15;2.30;;;;;;;;;;5097411;28;20069;-86
2022/04/10 03:41:25;;;;;;;8.30;1.73;;;;;;;;;;5097466;28;20043;-86
2022/04/10 03:44:09;;;;;;;8.33;1.60;;;;;;;;;;5097221;28;20384;-86
2022/04/10 03:46:54;;;;;;;8.73;2.27;;;;;;;;;;5083258;28;20047;-86
2022/04/10 03:49:38;;;;;;;9.70;2.60;;;;;;;;;;5113025;28;20035;-86
2022/04/10 03:52:23;;;;;;;12.23;2.00;;;;;;;;;;5099342;28;20046;-86
2022/04/10 03:55:08;;;;;;;7.10;1.60;;;;;;;;;;5116354;28;20030;-86
2022/04/10 03:57:53;;;;;;;9.43;2.17;;;;;;;;;;5101181;28;20042;-87
2022/04/10 04:00:38;;;;;;;8.17;3.10;;;;;;;;;;5117134;28;20395;-86
2022/04/10 04:03:22;;;;;;;3.10;1.20;;;;;;;;;;5101613;28;20516;-87
2022/04/10 04:06:07;;;;;;;4.83;1.70;;;;;;;;;;5101015;28;20084;-85
2022/04/10 04:08:51;;;;;;;4.33;1.33;;;;;;;;;;5115951;28;20066;-85
2022/04/10 04:11:36;;;;;;;6.03;1.40;;;;;;;;;;5101525;28;20453;-86
2022/04/10 04:14:21;;;;;;;7.97;2.30;;;;;;;;;;5100740;28;20054;-86
2022/04/10 04:17:06;;;;;;;9.17;1.60;;;;;;;;;;5100505;28;20122;-86
2022/04/10 04:19:51;;;;;;;5.03;1.23;;;;;;;;;;5101126;28;20039;-86
2022/04/10 04:22:36;;;;;;;4.60;1.20;;;;;;;;;;5101001;28;20410;-86
2022/04/10 04:25:21;;;;;;;6.30;1.10;;;;;;;;;;5086917;28;20084;-86
2022/04/10 04:28:05;;;;;;;4.07;1.03;;;;;;;;;;5116177;28;20096;-86
2022/04/10 04:30:50;;;;;;;5.47;1.30;;;;;;;;;;5099955;28;20558;-86
2022/04/10 04:33:35;;;;;;;4.93;1.23;;;;;;;;;;5086073;28;20047;-86
2022/04/10 04:36:19;;;;;;;7.97;1.30;;;;;;;;;;5100759;28;20034;-86
2022/04/10 04:39:03;;;;;;;6.00;1.67;;;;;;;;;;5100676;28;20537;-86
2022/04/10 04:41:48;;;;;;;4.77;1.10;;;;;;;;;;5116316;28;20050;-86
2022/04/10 04:44:32;;;;;;;2.80;1.13;;;;;;;;;;5086297;28;20081;-86
2022/04/10 04:47:17;;;;;;;10.03;2.03;;;;;;;;;;5086034;28;20122;-86
2022/04/10 04:50:01;;;;;;;5.53;1.50;;;;;;;;;;5100348;28;20096;-88
2022/04/10 04:52:46;;;;;;;7.23;1.50;;;;;;;;;;5086382;28;20453;-85
2022/04/10 04:55:30;;;;;;;4.27;1.20;;;;;;;;;;5100355;28;20097;-86
2022/04/10 04:58:15;;;;;;;6.53;1.40;;;;;;;;;;5114777;28;20125;-86
2022/04/10 05:01:00;;;;;;;6.80;1.77;;;;;;;;;;5085089;28;20051;-86
2022/04/10 05:03:45;;;;;;;9.37;1.70;;;;;;;;;;5099631;28;20039;-86
2022/04/10 05:06:29;;;;;;;5.90;1.53;;;;;;;;;;5114987;28;20033;-85
2022/04/10 05:09:14;;;;;;;8.00;1.47;;;;;;;;;;5099669;28;20042;-85
2022/04/10 05:11:58;;;;;;;4.97;1.70;;;;;;;;;;5115857;28;20058;-85
2022/04/10 05:14:43;;;;;;;6.20;1.60;;;;;;;;;;5099767;28;20089;-86
2022/04/10 05:17:28;;;;;;;5.50;1.77;;;;;;;;;;5099001;28;20092;-86
2022/04/10 05:20:13;;;;;;;9.53;2.27;;;;;;;;;;5098978;28;20038;-85
2022/04/10 05:22:57;;;;;;;5.43;1.77;;;;;;;;;;5115594;28;20047;-86
2022/04/10 05:25:42;;;;;;;8.00;2.43;;;;;;;;;;5099371;28;20043;-85
2022/04/10 05:28:27;;;;;;;13.07;1.90;;;;;;;;;;5099610;28;20089;-86
2022/04/10 05:31:12;;;;;;;4.87;2.07;;;;;;;;;;5098699;28;20522;-86
2022/04/10 05:33:56;;;;;;;4.43;1.70;;;;;;;;;;5085787;28;20074;-86
2022/04/10 05:36:43;;;;;;;5.40;1.37;;;;;;;;;;5099898;28;20035;-86
2022/04/10 05:39:28;;;;;;;10.67;1.83;;;;;;;;;;5099346;28;20051;-86
2022/04/10 05:42:13;;;;;;;5.07;1.57;;;;;;;;;;5114630;28;20043;-87
2022/04/10 05:45:04;;;;;;;6.17;1.73;;;;;;;;;;5099482;28;20039;-87
2022/04/10 05:47:49;;;;;;;5.53;2.00;;;;;;;;;;5099331;28;20039;-86
2022/04/10 05:50:34;;;;;;;9.60;1.77;;;;;;;;;;5114886;28;20058;-86
2022/04/10 05:53:18;;;;;;;7.70;1.60;;;;;;;;;;5099113;28;20077;-87
2022/04/10 05:56:03;;;;;;;8.47;2.00;;;;;;;;;;5085437;28;20085;-86
2022/04/10 05:58:48;;;;;;;5.00;1.67;;;;;;;;;;5085503;28;20038;-86
2022/04/10 06:01:32;;;;;;;9.47;1.57;;;;;;;;;;5114340;28;20043;-86
2022/04/10 06:04:17;;;;;;;4.83;1.50;;;;;;;;;;5114316;28;20042;-86
2022/04/10 06:07:02;;;;;;;7.33;1.80;;;;;;;;;;5114574;28;20441;-87
2022/04/10 06:09:47;;;;;;;4.88;1.52;;;;;;;;;;5099186;28;20089;-86
2022/04/10 06:12:31;;;;;;;12.35;2.13;;;;;;;;;;5098437;28;20046;-85
2022/04/10 06:15:19;;;;;;;6.90;1.23;;;3.60;99.90;;;;;;5083701;28;20427;-86
2022/04/10 06:18:04;;;;;;;8.43;1.60;;;;;;;;;;5099612;28;20038;-86
2022/04/10 06:20:49;;;;;;;9.77;1.60;;;;;;;;;;5084945;28;20092;-86
2022/04/10 06:23:33;;;;;;;6.13;2.20;;;;;;;;;;5084390;28;20088;-86
2022/04/10 06:26:18;;;;;;;7.63;1.50;;;;;;;;;;5083798;28;20046;-86
2022/04/10 06:29:03;;;;;;;6.30;1.50;;;;;;;;;;5084451;28;20124;-86
2022/04/10 06:31:48;;;;;;;10.25;1.75;;;3.60;99.90;;;;;;5098683;28;20039;-86
2022/04/10 06:34:33;;;;;;;11.30;1.80;;;;;;;;;;5084119;28;20047;-86
2022/04/10 06:37:17;;;;;;;9.13;1.80;;;;;;;;;;5098187;28;20176;-84
2022/04/10 06:40:05;;;;;;;5.25;1.85;;;;;;;;;;5098931;28;20084;-86
2022/04/10 06:42:50;;;;;;;7.32;1.70;;;;;;;;;;5084652;28;20093;-86
2022/04/10 06:45:35;;;;;;;8.50;2.65;;;;;;;;;;5113654;28;20124;-86
2022/04/10 06:48:19;;;;;;;9.35;1.90;;;;;;;;;;5098081;28;20043;-86
2022/04/10 06:51:04;;;;;;;5.60;1.60;;;;;;;;;;5114077;28;20038;-86
2022/04/10 06:53:49;;;;;;;8.48;1.45;;;;;;;;;;5114139;28;20544;-87
2022/04/10 06:56:34;;;;;;;9.48;1.90;;;;;;;;;;5097866;28;20043;-86
2022/04/10 06:59:22;;;;;;;6.38;1.20;;;;;;;;;;5099030;28;20081;-89
2022/04/10 07:02:07;;;;;;;9.40;1.67;;;;;;;;;;5113805;28;20498;-88
2022/04/10 07:04:51;;;;;;;6.05;1.63;;;;;;;;;;5098836;28;20499;-84
2022/04/10 07:07:37;;;;;;;8.52;1.63;;;;;;;;;;5084423;28;20077;-85
2022/04/10 07:10:30;;;;;;;7.18;1.77;;;4.40;99.90;;;;;;5097915;28;20047;-90
2022/04/10 07:13:18;;;;;;;6.93;1.75;;;;;;;;;;5098215;28;20043;-87
2022/04/10 07:16:02;;;;;;;5.10;1.60;;;;;;;;;;5098216;28;20117;-87
2022/04/10 07:18:48;;;;;;;6.30;1.75;;;;;;;;;;5083941;28;20038;-86
2022/04/10 07:24:36;;;;;;;8.73;1.40;;;;;;;;;;5113042;28;20506;-87
2022/04/10 07:27:23;;;;;;;10.68;2.25;;;;;;;;;;5097812;28;20085;-87
2022/04/10 07:30:08;;;;;;;4.65;2.13;;;;;;;;;;5084588;28;20047;-86
2022/04/10 07:32:54;;;;;;;10.35;1.75;;;8.80;99.90;;;;;;5098090;28;20043;-86
2022/04/10 07:35:42;;;;;;;9.73;1.65;;;;;;;;;;5083205;28;20035;-86
2022/04/10 07:38:30;;;;;;;6.30;1.70;;;;;;;;;;5098806;28;20065;-88
2022/04/10 07:41:14;;;;;;;4.63;1.67;;;;;;;;;;5100225;28;20057;-88
2022/04/10 07:44:01;;;;;;;6.65;2.38;;;;;;;;;;5100035;28;20081;-87
2022/04/10 07:49:49;;;;;;;9.50;2.00;;;;;;;;;;5100920;28;20046;-86
2022/04/10 07:52:34;;;;;;;11.73;1.92;;;;;;;;;;5084395;28;20092;-87
2022/04/10 07:55:22;;;;;;;8.95;2.10;;;;;;;;;;5098029;28;20035;-87
2022/04/10 07:58:06;;;;;;;9.10;2.75;;;;;;;;;;5097433;28;20066;-86
2022/04/10 08:00:51;;;;;;;7.80;1.58;;;;;;;;;;5096877;28;20042;-87
2022/04/10 08:03:35;;;;;;;6.38;1.70;;;;;;;;;;5097099;28;20121;-86
2022/04/10 08:06:20;;;;;;;5.40;2.20;;;;;;;;;;5083439;28;20559;-86
2022/04/10 08:09:05;;;;;;;5.43;1.40;;;;;;;;;;5097497;28;20088;-86
2022/04/10 08:11:50;;;;;;;10.20;2.50;;;;;;;;;;5097047;28;20054;-86
2022/04/10 08:14:34;;;;;;;5.95;1.50;;;;;;;;;;5097060;28;20038;-86
2022/04/10 08:17:19;;;;;;;6.82;1.50;;;;;;;;;;5083241;28;20039;-85
2022/04/10 08:20:04;;;;;;;6.97;1.92;;;;;;;;;;5097598;28;20043;-86
2022/04/10 08:22:49;;;;;;;5.55;1.48;;;7.90;99.90;;;;;;5112264;28;20086;-85
2022/04/10 08:25:34;;;;;;;4.97;1.27;;;;;;;;;;5082775;28;20085;-85
2022/04/10 08:28:19;;;;;;;12.02;1.95;;;;;;;;;;5097333;28;20108;-85
2022/04/10 08:31:04;;;;;;;9.50;2.30;;;;;;;;;;5097427;28;20042;-85
2022/04/10 08:33:51;;;;;;;10.63;1.95;;;8.30;99.90;;;;;;5097044;28;20112;-86
2022/04/10 08:36:36;;;;;;;10.98;2.25;;;;;;;;;;5096869;28;20095;-86
2022/04/10 08:39:21;;;;;;;7.93;2.42;;;;;;;;;;5101202;28;20067;-86
2022/04/10 08:42:08;;;;;;;9.80;1.95;;;8.60;99.90;;;;;;5100936;28;20074;-89
2022/04/10 08:44:55;;;;;;;11.50;2.10;;;8.70;99.90;;;;;;5100541;28;20038;-86
2022/04/10 08:47:42;;;;;;;10.95;2.42;;;;;;;;;;5100927;28;20065;-86
2022/04/10 08:50:27;;;;;;;8.35;1.83;;;;;;;;;;5100916;28;20112;-85
2022/04/10 08:53:12;;;;;;;10.48;2.78;;;;;;;;;;5116653;28;20049;-85
2022/04/10 08:55:57;;;;;;;9.13;1.90;;;;;;;;;;5086078;28;20039;-86
2022/04/10 08:58:41;;;;;;;7.47;1.85;;;;;;;;;;5100729;28;20034;-87
2022/04/10 09:01:28;;;;;;;12.10;2.03;;;;;;;;;;5100464;28;20597;-88
2022/04/10 09:04:16;;;;;;;8.48;1.55;;;;;;;;;;5100743;28;20074;-88
2022/04/10 09:07:02;;;;;;;8.63;3.05;;;;;;;;;;5115467;28;20383;-86
2022/04/10 09:09:57;;;;;;;5.65;1.65;;;;;;;;;;5099813;28;20039;-86
2022/04/10 09:12:47;;;;;;;;;;;9.60;99.90;;;;;;5100078;28;20042;-87
2022/04/10 09:15:32;;;;;;;6.78;2.38;;;;;;;;;;5100357;28;20391;-85
2022/04/10 09:18:17;;;;;;;7.28;1.60;;;;;;;;;;5100282;28;20079;-86
2022/04/10 09:21:08;;;;;;;5.53;1.42;;;;;;;;;;5100197;28;20388;-85
2022/04/10 09:23:53;;;;;;;8.30;2.30;;;;;;;;;;5115222;28;20042;-84
2022/04/10 09:27:05;;;;;;;7.75;1.80;;;8.80;99.90;;;;;;5115523;28;20490;-85
2022/04/10 09:29:51;;;;;;;6.53;1.45;;;;;;;;;;5099664;28;20124;-85
2022/04/10 09:32:47;;;;;;;3.17;1.40;;;8.90;99.90;;;;;;5100100;28;20038;-85
2022/04/10 09:35:43;;;;;;;7.05;2.00;;;8.80;99.90;;;;;;5100056;28;20080;-85
2022/04/10 09:38:30;;;;;;;3.35;1.17;;;;;;;;;;5099706;28;20499;-85
2022/04/10 09:41:15;;;;;;;4.30;1.45;;;;;;;;;;5085628;28;20046;-85
2022/04/10 09:44:23;;;;;;;3.88;1.27;;;9.20;99.90;;;;;;5115068;28;20080;-86
2022/04/10 09:47:09;;;;;;;8.30;1.92;;;;;;;;;;5099692;28;20089;-85
2022/04/10 09:50:04;;;;;;;7.38;1.50;;;9.70;99.90;;;;;;5098625;28;20039;-84
2022/04/10 09:52:49;;;;;;;5.50;1.27;;;;;;;;;;5114255;28;20039;-84
2022/04/10 09:55:43;;;;;;;5.95;1.35;;;;;;;;;;5099092;28;20055;-86
2022/04/10 09:58:28;;;;;;;8.02;2.33;;;;;;;;;;5114840;28;20042;-87
2022/04/10 10:01:13;;;;;;;10.90;2.15;;;;;;;;;;5099482;28;20046;-86
2022/04/10 10:03:58;;;;;;;8.88;1.65;;;;;;;;;;5084879;28;20501;-85
2022/04/10 10:06:43;;;;;;;9.82;2.42;;;;;;;;;;5099640;28;20042;-85
2022/04/10 10:09:30;;;;;;;9.88;1.92;;;8.80;99.90;;;;;;5099295;28;20115;-84
2022/04/10 10:12:16;;;;;;;9.45;2.33;;;;;;;;;;5099256;28;20046;-86
2022/04/10 10:15:00;;;;;;;11.35;2.13;;;;;;;;;;5114274;28;20034;-85
2022/04/10 10:17:45;;;;;;;12.07;2.42;;;;;;;;;;5115098;28;20070;-87
2022/04/10 10:20:30;;;;;;;7.10;2.28;;;;;;;;;;5114501;28;20043;-86
2022/04/10 10:23:15;;;;;;;7.15;1.65;;;;;;;;;;5114664;28;20046;-87
2022/04/10 10:26:06;;;;;;;11.23;2.97;;;;;;;;;;5098528;28;20042;-86
2022/04/10 10:29:06;;;;;;;11.07;1.73;;;;;;;;;;5098554;28;20064;-86
2022/04/10 10:31:54;;;;;;;11.57;2.28;;;;;;;;;;5098574;28;20065;-86
2022/04/10 10:34:41;;;;;;;4.63;1.83;;;;;;;;;;5098953;28;20038;-85
2022/04/10 10:37:31;;;;;;;9.60;1.95;;;;;;;;;;5114245;28;20054;-86
2022/04/10 10:40:19;;;;;;;6.85;1.52;;;10.30;99.90;;;;;;5113987;28;20039;-86
2022/04/10 10:43:05;;;;;;;8.73;1.60;;;;;;;;;;5113612;28;20058;-85
2022/04/10 10:45:52;;;;;;;11.40;1.88;;;10.30;99.90;;;;;;5084398;28;20129;-87
2022/04/10 10:48:42;;;;;;;8.38;1.85;;;;;;;;;;5114151;28;20045;-86
2022/04/10 10:51:30;;;;;;;10.75;1.98;;;;;;;;;;5085523;28;20223;-92
2022/04/10 10:54:23;;;;;;;8.35;1.60;;;;;;;;;;5097905;28;20039;-85
2022/04/10 10:57:23;;;;;;;9.15;1.83;;;9.90;99.90;;;;;;5097870;28;20115;-86
2022/04/10 11:00:09;;;;;;;7.95;2.05;;;;;;;;;;5112990;28;20118;-84
2022/04/10 11:02:54;;;;;;;5.10;1.33;;;;;;;;;;5113318;28;20035;-86
2022/04/10 11:05:39;;;;;;;9.75;1.50;;;;;;;;;;5098120;28;20077;-85
2022/04/10 11:08:37;;;;;;;8.07;1.90;;;;;;;;;;5098574;28;20553;-85
2022/04/10 11:11:35;;;;;;;8.40;2.08;;;;;;;;;;5113554;28;20038;-84
2022/04/10 11:14:39;;;;;;;5.45;1.40;;;;;;;;;;5097585;28;20035;-85
2022/04/10 11:17:31;;;;;;;7.18;1.65;;;;;;;;;;5098314;28;20039;-84
2022/04/10 11:20:16;;;;;;;7.57;1.60;;;;;;;;;;5097312;28;20034;-86
2022/04/10 11:23:03;;;;;;;4.38;1.77;;;;;;;;;;5097344;28;20078;-84
2022/04/10 11:25:53;;;;;;;6.97;1.58;;;;;;;;;;5097698;28;20038;-84
2022/04/10 11:28:56;;;;;;;4.68;1.77;;;10.60;99.90;;;;;;5097602;28;20070;-85
2022/04/10 11:31:44;;;;;;;4.60;1.50;;;;;;;;;;5097850;28;20042;-84
2022/04/10 11:34:29;;;;;;;9.38;1.80;;;10.40;99.90;;;;;;5097561;28;20042;-84
2022/04/10 11:37:21;;;;;;;5.65;1.48;;;10.40;99.90;;;;;;5112300;28;20069;-85
2022/04/10 11:40:34;;;;;;;5.60;1.95;;;;;;;;;;5083377;28;20632;-92
2022/04/10 11:43:21;;;;;;;6.85;1.25;;;10.30;99.90;;;;;;5112409;28;20121;-85
2022/04/10 11:46:08;;;;;;;5.63;1.55;;;10.30;99.90;;;;;;5082941;28;20089;-86
2022/04/10 11:48:55;;;;;;;7.75;2.53;;;;;;;;;;5097604;28;20039;-86
2022/04/10 11:51:59;;;;;;;6.95;1.75;;;;;;;;;;5097358;28;20042;-87
2022/04/10 12:01:55;;;;;;;8.90;2.28;;;;;;;;;;5047860;28;20459;-87
2022/04/10 12:04:40;;;;;;;6.80;2.10;;;;;;;;;;5034030;28;20036;-86
2022/04/10 12:07:25;;;;;;;7.20;1.15;;;;;;;;;;5033405;28;20132;-86
2022/04/10 12:10:17;;;;;;;4.70;1.58;;;;;;;;;;5094312;28;20051;-88
2022/04/10 12:13:02;;;;;;;2.90;0.90;;;;;;;;;;5096862;28;20100;-87
2022/04/10 12:16:01;;;;;;;5.45;1.45;;;;;;;;;;5099346;28;20035;-85
2022/04/10 12:18:57;;;;;;;5.03;1.20;;;;;;;;;;5115213;28;20449;-85
2022/04/10 12:21:49;;;;;;;4.82;1.80;;;;;;;;;;5099299;28;20039;-85
2022/04/10 12:24:34;;;;;;;3.95;1.10;;;;;;;;;;5099350;28;20045;-86
2022/04/10 12:27:19;;;;;;;6.65;2.13;;;;;;;;;;5099104;28;20038;-86
2022/04/10 12:30:09;;;;;;;7.57;1.60;;;;;;;;;;5114822;28;20039;-89
2022/04/10 12:32:54;;;;;;;6.35;1.40;;;;;;;;;;5099407;28;20499;-85
2022/04/10 12:35:45;;;;;;;4.18;1.27;;;;;;;;;;5099565;28;20133;-87
2022/04/10 12:38:53;;;;;;;5.68;1.58;;;;;;;;;;5098536;28;20063;-87
2022/04/10 12:42:07;;;;;;;;;;;;;;;;;;;;;
2022/04/10 12:45:18;;;;;;;5.65;1.40;;;;;;;;;;5114352;28;20038;-87
2022/04/10 12:48:19;;;;;;;5.60;1.30;;;;;;;;;;5099135;28;20488;-86
2022/04/10 12:51:05;;;;;;;5.90;1.15;;;;;;;;;;5099105;28;20074;-86
2022/04/10 12:53:50;;;;;;;3.55;1.10;;;;;;;;;;5099102;28;20062;-86
2022/04/10 12:56:40;;;;;;;4.18;1.23;;;;;;;;;;5100339;28;20070;-84
2022/04/10 12:59:42;;;;;;;7.32;1.55;;;;;;;;;;5100397;28;20123;-86
2022/04/10 13:02:27;;;;;;;5.22;1.63;;;;;;;;;;5100107;28;20165;-85
2022/04/10 13:05:13;;;;;;;3.90;1.45;;;;;;;;;;5101101;28;20119;-86
2022/04/10 13:08:42;;;;;;;5.93;1.45;;;10.70;93.30;;;;;;5107549;28;20092;-89
2022/04/10 13:11:26;;;;;;;10.55;1.50;;;;;;;;;;5101610;28;20041;-85
2022/04/10 13:14:13;;;;;;;5.72;1.10;;;;;;;;;;5100242;28;20499;-87
2022/04/10 13:17:04;;;;;;;8.05;2.10;;;;;;;;;;5100400;28;20479;-85
2022/04/10 13:19:49;;;;;;;7.30;1.85;;;;;;;;;;5100587;28;20115;-86
2022/04/10 13:22:34;;;;;;;6.53;1.45;;;;;;;;;;5100000;28;20092;-83
2022/04/10 13:25:21;;;;;;;3.95;1.05;;;;;;;;;;5120968;28;20039;-91
2022/04/10 13:28:34;;;;;;;6.25;1.20;;;;;;;;;;5102256;28;20042;-92
2022/04/10 13:31:29;;;;;;;5.75;1.48;;;;;;;;;;5116483;28;20042;-91
2022/04/10 13:34:17;;;;;;;5.13;1.27;;;;;;;;;;5101389;28;20084;-92
2022/04/10 13:37:09;;;;;;;7.00;1.50;;;;;;;;;;5102836;28;20050;-91
2022/04/10 13:40:15;;;;;;;;;;;;;;;;;;;;;
2022/04/10 13:43:33;;;;;;;5.30;1.15;;;;;;;;;;5105781;28;20506;-93
2022/04/10 13:46:25;;;;;;;5.07;1.42;;;;;;;;;;5096062;28;20034;-90
2022/04/10 13:57:37;;;;;;;6.80;1.40;;;;;;;;;;5100775;23;20068;-84
2022/04/10 14:00:22;;;;;;;4.57;1.20;;;;;;;;;;5057396;28;20040;-85
2022/04/10 14:03:06;;;;;;;3.33;1.15;;;;;;;;;;5073457;28;20047;-85
2022/04/10 14:05:51;;;;;;;6.38;1.45;;;;;;;;;;5058102;28;20514;-85
2022/04/10 14:09:02;;;;;;;5.50;1.35;;;;;;;;;;5058816;28;20047;-91
2022/04/10 14:11:47;;;;;;;6.43;1.42;;;;;;;;;;5064119;28;20043;-85
2022/04/10 14:14:36;;;;;;;7.57;1.40;;;;;;;;;;5055792;28;20124;-85
2022/04/10 14:17:21;;;;;;;5.45;1.27;;;;;;;;;;5057228;28;20078;-84
2022/04/10 14:20:06;;;;;;;6.47;1.92;;;;;;;;;;5057221;28;20401;-85
2022/04/10 14:23:11;;;;;;;3.67;1.30;;;;;;;;;;5060350;28;20043;-93
2022/04/10 14:29:25;;;;;;;6.22;1.30;;;;;;;;;;5053306;28;20510;-86
2022/04/10 14:32:09;;;;;;;3.90;1.10;;;;;;;;;;5058505;28;20039;-86
2022/04/10 14:34:54;;;;;;;3.75;1.10;;;;;;;;;;5058067;28;20495;-85
2022/04/10 14:37:38;;;;;;;7.55;1.60;;;;;;;;;;5057793;28;20035;-84
2022/04/10 14:40:23;;;;;;;5.65;1.35;;;;;;;;;;5072968;28;20514;-86
2022/04/10 14:43:08;;;;;;;4.00;1.10;;;;;;;;;;5057739;28;20050;-86
2022/04/10 14:45:52;;;;;;;3.15;1.35;;;;;;;;;;5058211;28;20531;-86
2022/04/10 14:48:37;;;;;;;3.92;1.10;;;;;;;;;;5043390;28;20464;-86
2022/04/10 14:51:21;;;;;;;4.15;1.00;;;;;;;;;;5057588;28;20056;-86
2022/04/10 14:54:06;;;;;;;4.03;1.35;;;;;;;;;;5044160;28;20042;-85
2022/04/10 14:56:53;;;;;;;7.60;1.00;;;;;;;;;;5057793;28;20051;-85
2022/04/10 14:59:38;;;;;;;3.17;1.20;;;;;;;;;;5057446;28;20393;-86
2022/04/10 15:02:23;;;;;;;7.82;1.45;;;;;;;;;;5057380;28;20146;-89
2022/04/10 15:05:08;;;;;;;6.75;1.15;;;;;;;;;;5057655;28;20123;-86
2022/04/10 15:07:59;;;;;;;6.18;1.10;;;;;;;;;;5057773;28;20040;-86
2022/04/10 15:10:46;;;;;;;7.57;1.58;;;;;;;;;;5056943;28;20624;-87
2022/04/10 15:13:35;;;;;;;2.15;1.00;;;;;;;;;;5072277;28;20042;-86
2022/04/10 15:16:19;;;;;;;5.65;1.17;;;;;;;;;;5057426;28;20397;-88
2022/04/10 15:19:04;;;;;;;6.05;1.35;;;;;;;;;;5072803;28;20082;-85
2022/04/10 15:21:48;;;;;;;3.28;1.30;;;;;;;;;;5056865;28;20055;-83
2022/04/10 15:24:33;;;;;;;3.22;1.45;;;;;;;;;;5057012;28;20086;-86
2022/04/10 15:27:17;;;;;;;5.20;1.35;;;;;;;;;;5057299;28;20031;-85
2022/04/10 15:30:03;;;;;;;3.33;1.20;;;10.80;91.80;;;;;;5072567;28;20071;-85
2022/04/10 15:32:48;;;;;;;7.47;1.25;;;;;;;;;;5056620;28;20063;-86
2022/04/10 15:35:33;;;;;;;4.15;1.40;;;;;;;;;;5071778;28;20499;-86
2022/04/10 15:38:18;;;;;;;2.65;0.93;;;;;;;;;;5057234;28;20039;-87
2022/04/10 15:41:03;;;;;;;5.78;1.30;;;;;;;;;;5072266;28;20082;-86
2022/04/10 15:43:48;;;;;;;3.90;0.95;;;;;;;;;;5056548;28;20043;-85
2022/04/10 15:46:32;;;;;;;3.58;1.10;;;;;;;;;;5071600;28;20047;-85
2022/04/10 15:49:17;;;;;;;5.93;1.27;;;;;;;;;;5058254;28;20044;-86
2022/04/10 15:52:02;;;;;;;4.25;1.33;;;;;;;;;;5057760;28;20086;-86
2022/04/10 15:54:49;;;;;;;3.30;1.20;;;;;;;;;;5056699;28;20066;-87
2022/04/10 15:57:34;;;;;;;3.55;1.13;;;;;;;;;;5056475;28;20106;-86
2022/04/10 16:00:19;;;;;;;4.40;1.27;;;;;;;;;;5057061;28;20043;-86
2022/04/10 16:03:07;;;;;;;7.20;0.95;;;;;;;;;;5072219;28;20047;-86
2022/04/10 16:05:52;;;;;;;4.53;1.20;;;;;;;;;;5056312;28;20125;-88
2022/04/10 16:08:37;;;;;;;4.80;1.20;;;;;;;;;;5056415;28;20446;-87
2022/04/10 16:11:38;;;;;;;6.90;1.88;;;;;;;;;;5058549;28;20393;-89
2022/04/10 16:14:25;;;;;;;4.03;1.17;;;;;;;;;;5058342;28;20103;-87
2022/04/10 16:17:10;;;;;;;4.03;1.42;;;;;;;;;;5071532;28;20078;-87
2022/04/10 16:19:55;;;;;;;2.22;0.98;;;;;;;;;;5055756;28;20551;-86
2022/04/10 16:22:42;;;;;;;6.90;0.98;;;;;;;;;;5056108;28;20117;-87
2022/04/10 16:25:27;;;;;;;4.57;1.10;;;;;;;;;;5056765;28;20032;-87
2022/04/10 16:31:16;;;;;;;5.28;0.95;;;;;;;;;;5072054;28;20404;-87
2022/04/10 16:34:19;;;;;;;3.97;1.40;;;;;;;;;;5056413;28;20036;-87
2022/04/10 16:37:04;;;;;;;3.13;0.93;;;;;;;;;;5056591;28;20035;-87
2022/04/10 16:39:49;;;;;;;3.40;1.00;;;;;;;;;;5056914;28;20096;-89
2022/04/10 16:42:33;;;;;;;1.48;0.68;;;;;;;;;;5056375;28;20085;-89
2022/04/10 16:45:18;;;;;;;3.70;1.10;;;;;;;;;;5056478;28;20545;-87
2022/04/10 16:48:04;;;;;;;2.85;1.20;;;;;;;;;;5056338;28;20496;-86
2022/04/10 16:50:52;;;;;;;2.45;0.80;;;;;;;;;;5056065;28;20083;-87
2022/04/10 16:53:42;;;;;;;3.00;0.90;;;;;;;;;;5056381;28;20554;-88
2022/04/10 16:56:29;;;;;;;5.38;1.13;;;;;;;;;;5071420;28;20518;-91